Auchinleck, United Kingdom
Current Conditions -  °F | °C
As of 9:20 AM on Thursday 18 Dec 2014 (Local Time) from EGPK Reporting Station
Light Rain Light Rain  
Wind Chill: 54°   Ceiling: 1300
Heat Index: 54°   Visibility: 4mi
Dew Point: 50°   Wind: 21mph
Humidity: 88%   Direction: 210°SSW
Pressure: 29.35"   Gusts: 38mph
Location:  55.47°N, 4.29°W
Report Text: EGPK 180920Z 21018G33KT 7000 -RA SCT009 BKN013 12/10 Q0994
Loading
Personal Weather Stations






























Interactive Weather Map New forecast layout! Learn more

10-Day Weather Forecast

Advertisements
Track Severe Weather on mobile